Skip Navigation Links Skip Navigation Links

Current Weather

Manchester, United Kingdom

For information only: do not use for flight planning or navigation.
Latest weather
Observation time Friday, December 3, 2021 8:50 AM GMT
Local time Friday, December 3, 2021 9:25 AM GMT
Flight conditions Low Instrument Meteorological Conditions
Winds
Wind direction Southwest (230°)
Wind speed 3 mph
Visibility 2.5 mi.
Present weather mist, REDZ
Sky condition
Ceiling 400 ft. broken clouds
Cloud layer few clouds 100 ft.
Cloud layer broken clouds 400 ft.
Cloud layer broken clouds 800 ft.
Temperature 43°F
Dewpoint 43°F
Altimeter 29.59 in.Hg
Derived measurements
Relative humidity 100%
Wind chill 41°F
Density altitude -566 ft.
Remarks
Corrected report.
METAR COR EGCC 030850Z 23003KT 4000 BR FEW001 BKN004 06/06 Q1002 REDZ BECMG 6000 BKN008

Settings

Location code

InnerDrive.Weather 4.0.6770.0 Release CLR 4.0.30319.42000
Copyright ©2018 Inner Drive Technology. All rights reserved. Portions Copyright ©1986-2018 David Braverman.

Find weather

Site navigation


Skip Navigation Links

Place info

Page info

PayPal - The safer, easier way to pay online!

Return home.

Copyright ©2021 Inner Drive Technology. Purveyors of fine, hand-crafted computer software. Page printed 2021-12-03T09:25:49 UTC.